Time;durP1;ratioP1;P1;durP2;ratioP2;P2;SDS_P1;SDS_P2;PMS_P1;PMS_P2;Temp;Humidity;BMP_temperature;BMP_pressure;BME280_temperature;BME280_humidity;BME280_pressure;Samples;Min_cycle;Max_cycle;Signal;HPM_P1;HPM_P2
2023/10/30 00:08:26;;;;;;;7.00;5.43;;;12.50;99.90;;;;;;4657051;30;20320;-66
2023/10/30 00:10:56;;;;;;;7.23;5.50;;;12.50;99.90;;;;;;4662277;30;20228;-66
2023/10/30 00:17:00;;;;;;;6.37;4.57;;;12.40;99.90;;;;;;4645034;30;20302;-67
2023/10/30 00:19:50;;;;;;;6.73;5.17;;;12.30;99.90;;;;;;4645213;30;20232;-65
2023/10/30 00:25:32;;;;;;;7.60;5.33;;;12.30;99.90;;;;;;4663281;30;20221;-66
2023/10/30 00:54:29;;;;;;;5.73;3.90;;;12.40;99.90;;;;;;4687931;30;20761;-66
2023/10/30 01:00:36;;;;;;;5.87;3.77;;;12.40;99.90;;;;;;4645480;30;20712;-66
2023/10/30 01:36:07;;;;;;;4.10;2.93;;;12.20;99.90;;;;;;4695314;30;20224;-66
2023/10/30 01:38:53;;;;;;;4.40;3.20;;;12.30;99.90;;;;;;4695359;30;20234;-66
2023/10/30 02:16:11;;;;;;;2.40;2.23;;;12.20;99.90;;;;;;4694501;30;20216;-66
2023/10/30 03:29:19;;;;;;;4.57;2.87;;;12.00;99.90;;;;;;4670157;30;20700;-67
2023/10/30 03:32:13;;;;;;;3.80;2.70;;;12.10;99.90;;;;;;4693278;30;20208;-66
2023/10/30 03:35:32;;;;;;;3.63;2.50;;;12.00;99.90;;;;;;4679753;30;20241;-66
2023/10/30 03:38:07;;;;;;;5.27;2.20;;;12.00;99.90;;;;;;4676857;30;20303;-66
2023/10/30 03:40:36;;;;;;;2.10;2.00;;;12.10;99.90;;;;;;4676618;30;20589;-66
2023/10/30 03:43:05;;;;;;;3.40;2.40;;;12.10;99.90;;;;;;4677418;30;20212;-66
2023/10/30 03:45:34;;;;;;;2.30;2.10;;;12.10;99.90;;;;;;4680471;30;20591;-66
2023/10/30 03:48:03;;;;;;;2.77;2.00;;;12.00;99.90;;;;;;4680505;30;20223;-66
2023/10/30 03:50:31;;;;;;;2.77;2.53;;;12.00;99.90;;;;;;4680230;30;20290;-66
2023/10/30 03:53:00;;;;;;;2.80;2.30;;;12.00;99.90;;;;;;4679467;30;20243;-66
2023/10/30 03:56:17;;;;;;;4.40;2.77;;;12.00;99.90;;;;;;4680216;30;20211;-66
2023/10/30 03:59:11;;;;;;;2.30;2.10;;;12.00;99.90;;;;;;4702728;30;20248;-66
2023/10/30 04:01:41;;;;;;;2.90;2.70;;;11.90;99.90;;;;;;4749144;30;20236;-66
2023/10/30 04:04:10;;;;;;;2.30;2.20;;;11.90;99.90;;;;;;4749831;30;20661;-66
2023/10/30 04:06:38;;;;;;;2.67;2.47;;;11.90;99.90;;;;;;4749543;30;20226;-66
2023/10/30 04:09:07;;;;;;;2.50;2.30;;;11.90;99.90;;;;;;4749500;30;20232;-66
2023/10/30 04:11:36;;;;;;;6.23;2.40;;;11.90;99.90;;;;;;4749683;30;20581;-66
2023/10/30 04:14:04;;;;;;;3.20;2.67;;;11.90;99.90;;;;;;4749370;30;20218;-66
2023/10/30 04:37:40;;;;;;;2.60;2.40;;;11.90;99.90;;;;;;4697346;30;20677;-66
2023/10/30 04:40:51;;;;;;;3.23;2.20;;;11.80;99.90;;;;;;4714364;30;20229;-66
2023/10/30 04:43:40;;;;;;;2.57;2.37;;;11.80;99.90;;;;;;4727347;30;20334;-66
2023/10/30 04:46:08;;;;;;;4.80;2.10;;;11.80;99.90;;;;;;4714154;30;20235;-66
2023/10/30 04:48:37;;;;;;;3.03;2.40;;;11.80;99.90;;;;;;4713022;30;20241;-65
2023/10/30 04:51:34;;;;;;;4.93;2.37;;;11.70;99.90;;;;;;4715565;30;20653;-66
2023/10/30 04:54:02;;;;;;;2.47;2.20;;;11.70;99.90;;;;;;4753175;30;20224;-66
2023/10/30 04:56:33;;;;;;;2.60;2.40;;;11.70;99.90;;;;;;4765211;30;20215;-66
2023/10/30 04:59:01;;;;;;;5.37;2.70;;;11.70;99.90;;;;;;4766860;30;20212;-66
2023/10/30 05:01:30;;;;;;;2.23;2.03;;;11.70;99.90;;;;;;4766906;30;20338;-66
2023/10/30 05:03:58;;;;;;;2.77;2.47;;;11.70;99.90;;;;;;4766794;30;21036;-66
2023/10/30 05:07:10;;;;;;;3.23;2.13;;;11.80;99.90;;;;;;4766699;30;20204;-66
2023/10/30 05:16:53;;;;;;;2.20;2.10;;;11.70;99.90;;;;;;4671448;30;20338;-66
2023/10/30 05:19:22;;;;;;;5.00;2.20;;;11.70;99.90;;;;;;4695254;30;20215;-67
2023/10/30 05:21:51;;;;;;;3.73;2.23;;;11.70;99.90;;;;;;4692475;30;20223;-67
2023/10/30 05:28:45;;;;;;;2.87;2.50;;;11.70;99.90;;;;;;4662831;30;20226;-67
2023/10/30 05:48:14;;;;;;;2.47;2.27;;;11.80;99.90;;;;;;4661049;30;20208;-67
2023/10/30 05:51:45;;;;;;;;;;;;;;;;;;;;;
2023/10/30 05:54:32;;;;;;;3.30;2.27;;;11.80;99.90;;;;;;4726423;30;20220;-68
2023/10/30 05:57:00;;;;;;;4.43;2.40;;;11.80;99.90;;;;;;4764792;30;20224;-67
2023/10/30 05:59:29;;;;;;;2.93;2.20;;;11.80;99.90;;;;;;4806206;29;20220;-68
2023/10/30 06:01:57;;;;;;;2.63;2.13;;;11.70;99.90;;;;;;4819688;29;20288;-68
2023/10/30 06:04:27;;;;;;;3.30;2.67;;;11.80;99.90;;;;;;4819812;29;20291;-67
2023/10/30 06:07:35;;;;;;;3.73;2.37;;;11.80;99.90;;;;;;4817981;29;20691;-67
2023/10/30 06:10:19;;;;;;;5.13;2.60;;;11.80;99.90;;;;;;4874541;29;20340;-67
2023/10/30 06:17:27;;;;;;;2.33;2.20;;;11.90;99.90;;;;;;4800827;29;20214;-68
2023/10/30 06:19:57;;;;;;;3.53;2.13;;;11.80;99.90;;;;;;4799137;29;20267;-67
2023/10/30 06:22:57;;;;;;;5.23;2.60;;;11.90;99.90;;;;;;4800884;29;20211;-67
2023/10/30 06:25:26;;;;;;;3.50;2.63;;;11.90;99.90;;;;;;4782951;30;20215;-67
2023/10/30 06:28:42;;;;;;;4.30;2.30;;;11.90;99.90;;;;;;4782708;30;20236;-67
2023/10/30 06:31:28;;;;;;;2.87;2.57;;;11.90;99.90;;;;;;4764896;30;20247;-67
2023/10/30 06:33:56;;;;;;;3.53;2.27;;;12.00;99.90;;;;;;4837095;29;20273;-67
2023/10/30 06:40:50;;;;;;;5.20;3.40;;;12.00;99.90;;;;;;4764290;30;20212;-67
2023/10/30 07:16:48;;;;;;;2.23;1.90;;;13.40;99.90;;;;;;4657089;30;20222;-67
2023/10/30 07:20:04;;;;;;;2.47;2.30;;;13.30;99.90;;;;;;4673905;30;20226;-67
2023/10/30 07:22:33;;;;;;;3.87;2.20;;;13.50;99.90;;;;;;4659902;30;20225;-67
2023/10/30 07:29:15;;;;;;;7.77;3.00;;;13.60;99.90;;;;;;4639586;30;20777;-67
2023/10/30 07:33:02;;;;;;;14.70;8.80;;;13.50;99.90;;;;;;4629416;30;20814;-67
2023/10/30 07:45:56;;;;;;;14.33;3.80;;;13.80;99.90;;;;;;4625963;30;20227;-67
2023/10/30 08:05:35;;;;;;;4.37;2.10;;;13.70;99.90;;;;;;4659294;30;20718;-67
2023/10/30 08:08:04;;;;;;;4.47;2.03;;;13.80;99.90;;;;;;4659284;30;20216;-67
2023/10/30 08:10:33;;;;;;;3.57;2.20;;;13.90;99.90;;;;;;4659262;30;20240;-67
2023/10/30 08:13:22;;;;;;;4.03;2.30;;;14.00;99.90;;;;;;4644380;30;20226;-67
2023/10/30 08:16:20;;;;;;;3.33;2.37;;;14.20;99.90;;;;;;4645251;30;20227;-67
2023/10/30 08:18:48;;;;;;;2.50;2.30;;;14.40;99.90;;;;;;4671042;30;20239;-67
2023/10/30 08:21:21;;;;;;;2.63;1.90;;;14.40;99.90;;;;;;4694435;30;20216;-68
2023/10/30 08:24:36;;;;;;;4.80;2.30;;;14.60;99.90;;;;;;4710773;30;20233;-67
2023/10/30 08:28:00;;;;;;;3.47;2.03;;;14.80;99.90;;;;;;4742922;30;20218;-67
2023/10/30 08:30:51;;;;;;;5.30;2.37;;;14.90;99.30;;;;;;4746776;30;20271;-68
2023/10/30 08:33:19;;;;;;;4.27;2.20;;;14.80;99.90;;;;;;4749146;30;20215;-68
2023/10/30 08:35:56;;;;;;;2.10;1.90;;;14.80;99.90;;;;;;4749118;30;20230;-67
2023/10/30 08:38:52;;;;;;;6.13;2.23;;;14.60;99.90;;;;;;4743341;30;20221;-68
2023/10/30 08:41:56;;;;;;;6.43;2.63;;;14.70;99.90;;;;;;4763563;30;20619;-67
2023/10/30 08:44:31;;;;;;;4.80;2.30;;;14.90;99.90;;;;;;4763700;30;20708;-67
2023/10/30 08:51:15;;;;;;;8.53;5.63;;;14.90;99.90;;;;;;4748655;30;20248;-67
2023/10/30 08:54:03;;;;;;;8.60;2.77;;;15.10;99.90;;;;;;4766278;30;20250;-67
2023/10/30 08:56:38;;;;;;;4.67;1.83;;;15.00;99.40;;;;;;4766617;30;20216;-68
2023/10/30 08:59:07;;;;;;;3.40;1.70;;;15.10;99.40;;;;;;4766453;30;20224;-68
2023/10/30 09:01:47;;;;;;;5.17;2.03;;;15.00;99.10;;;;;;4766195;30;20238;-67
2023/10/30 09:04:16;;;;;;;9.03;4.93;;;15.20;98.60;;;;;;4695800;30;20218;-67
2023/10/30 09:06:49;;;;;;;3.13;2.70;;;15.30;97.70;;;;;;4681310;30;20345;-68
2023/10/30 09:09:21;;;;;;;5.67;2.93;;;15.20;97.80;;;;;;4695824;30;20589;-68
2023/10/30 09:11:49;;;;;;;3.73;2.10;;;15.30;97.60;;;;;;4696126;30;20256;-68
2023/10/30 09:14:24;;;;;;;5.37;1.80;;;15.20;96.90;;;;;;4695709;30;20219;-67
2023/10/30 09:16:59;;;;;;;3.37;2.00;;;15.20;97.90;;;;;;4710516;30;20221;-67
2023/10/30 09:19:27;;;;;;;5.10;1.90;;;15.00;97.20;;;;;;4695932;30;20223;-67
2023/10/30 09:21:55;;;;;;;2.97;2.00;;;14.90;98.30;;;;;;4713702;30;20257;-68
2023/10/30 09:24:28;;;;;;;4.33;2.03;;;15.00;99.20;;;;;;4765911;30;20639;-68
2023/10/30 09:27:20;;;;;;;4.03;2.50;;;15.10;97.70;;;;;;4758337;30;20290;-68
2023/10/30 09:30:13;;;;;;;3.80;2.40;;;15.00;96.30;;;;;;4748144;30;20235;-68
2023/10/30 09:32:41;;;;;;;4.30;1.97;;;15.30;98.20;;;;;;4748203;30;20337;-68
2023/10/30 09:35:10;;;;;;;9.60;4.40;;;15.50;96.50;;;;;;4748196;30;20231;-68
2023/10/30 09:37:39;;;;;;;3.37;2.33;;;15.80;96.20;;;;;;4762740;30;20229;-68
2023/10/30 09:40:10;;;;;;;4.23;2.50;;;15.60;95.00;;;;;;4747957;30;20214;-67
2023/10/30 09:42:55;;;;;;;5.80;2.57;;;15.60;94.60;;;;;;4747771;30;20723;-67
2023/10/30 09:45:37;;;;;;;2.93;1.77;;;15.80;94.70;;;;;;4747909;30;20285;-67
2023/10/30 09:48:19;;;;;;;3.43;2.03;;;15.50;94.00;;;;;;4747920;30;20686;-68
2023/10/30 09:51:17;;;;;;;6.30;2.67;;;15.80;94.80;;;;;;4747841;30;20247;-67
2023/10/30 09:53:59;;;;;;;3.63;2.10;;;16.00;93.90;;;;;;4735057;30;20694;-68
2023/10/30 09:56:53;;;;;;;2.17;1.97;;;16.20;93.50;;;;;;4747982;30;20218;-67
2023/10/30 09:59:59;;;;;;;5.80;2.17;;;16.20;91.20;;;;;;4762581;30;20229;-69
2023/10/30 10:02:34;;;;;;;2.73;1.90;;;16.10;92.50;;;;;;4777983;30;20211;-68
2023/10/30 10:05:02;;;;;;;6.10;2.20;;;16.20;91.70;;;;;;4782752;29;20230;-68
2023/10/30 10:07:31;;;;;;;1.97;1.80;;;16.00;90.40;;;;;;4783391;30;20218;-68
2023/10/30 10:10:00;;;;;;;5.33;2.07;;;15.90;91.90;;;;;;4783124;29;20222;-67
2023/10/30 10:12:31;;;;;;;4.43;2.40;;;16.00;92.50;;;;;;4783172;29;20253;-67
2023/10/30 10:15:07;;;;;;;2.70;2.37;;;16.20;91.40;;;;;;4783276;30;20216;-67
2023/10/30 10:17:44;;;;;;;4.07;2.50;;;16.50;90.30;;;;;;4782990;29;20306;-67
2023/10/30 10:20:21;;;;;;;7.70;3.07;;;16.60;88.50;;;;;;4782892;29;20739;-67
2023/10/30 10:22:51;;;;;;;3.53;2.27;;;16.60;86.30;;;;;;4782992;29;20725;-68
2023/10/30 10:25:21;;;;;;;4.87;2.97;;;16.60;88.10;;;;;;4780029;30;20296;-68
2023/10/30 10:27:52;;;;;;;5.63;2.47;;;16.70;84.80;;;;;;4747168;30;20212;-68
2023/10/30 10:30:35;;;;;;;7.50;2.90;;;16.60;85.80;;;;;;4747178;30;20219;-67
2023/10/30 10:33:03;;;;;;;9.23;4.03;;;16.80;85.00;;;;;;4747185;30;20298;-67
2023/10/30 10:35:39;;;;;;;8.23;4.93;;;16.70;85.40;;;;;;4813131;29;20683;-68
2023/10/30 10:38:16;;;;;;;5.13;3.27;;;17.20;88.70;;;;;;4852160;29;20213;-68
2023/10/30 10:40:47;;;;;;;3.83;2.40;;;17.90;79.70;;;;;;4836705;29;20205;-67
2023/10/30 10:43:19;;;;;;;4.10;2.30;;;19.00;70.80;;;;;;4837067;29;20205;-67
2023/10/30 10:45:48;;;;;;;3.90;2.40;;;19.30;66.10;;;;;;4837003;29;20328;-67
2023/10/30 10:48:17;;;;;;;5.63;2.77;;;19.70;65.10;;;;;;4837043;29;20211;-67
2023/10/30 10:50:47;;;;;;;4.67;2.30;;;20.00;62.50;;;;;;4837013;29;20213;-68
2023/10/30 10:53:20;;;;;;;3.57;2.40;;;19.50;63.90;;;;;;4836529;29;20208;-67
2023/10/30 10:55:57;;;;;;;5.50;2.13;;;18.60;65.90;;;;;;4836833;29;20201;-67
2023/10/30 10:58:40;;;;;;;5.33;2.10;;;18.20;67.30;;;;;;4852257;29;20338;-67
2023/10/30 11:01:17;;;;;;;4.97;3.17;;;19.20;67.00;;;;;;4836379;29;20369;-68
2023/10/30 11:03:49;;;;;;;5.07;2.50;;;20.60;60.30;;;;;;4836907;29;20289;-68
2023/10/30 11:06:19;;;;;;;4.27;2.17;;;22.40;55.90;;;;;;4836694;29;20228;-67
2023/10/30 11:08:57;;;;;;;3.57;2.20;;;21.90;55.60;;;;;;4836712;29;20200;-68
2023/10/30 11:11:33;;;;;;;4.13;2.20;;;21.30;55.20;;;;;;4836705;29;20211;-66
2023/10/30 11:14:17;;;;;;;3.20;2.00;;;20.90;56.20;;;;;;4836519;29;20218;-68
2023/10/30 11:16:51;;;;;;;4.17;2.87;;;20.30;57.20;;;;;;4857030;29;20252;-67
2023/10/30 11:19:21;;;;;;;8.23;3.13;;;19.60;59.40;;;;;;4873729;29;20236;-68
2023/10/30 11:21:50;;;;;;;6.87;3.73;;;18.70;62.10;;;;;;4925982;29;20311;-68
2023/10/30 11:24:38;;;;;;;4.50;2.20;;;19.50;62.10;;;;;;4951527;28;20588;-66
2023/10/30 11:27:36;;;;;;;6.43;2.20;;;18.80;62.50;;;;;;4951659;28;20330;-68
2023/10/30 11:30:11;;;;;;;4.37;2.20;;;17.70;65.30;;;;;;4950524;28;20209;-67
2023/10/30 11:33:01;;;;;;;6.00;2.63;;;17.20;69.00;;;;;;4951466;29;20200;-68
2023/10/30 11:35:36;;;;;;;6.87;2.30;;;17.20;71.80;;;;;;4910988;29;20210;-67
2023/10/30 11:38:06;;;;;;;6.63;2.40;;;16.80;73.80;;;;;;4895314;29;20241;-68
2023/10/30 11:40:39;;;;;;;7.27;2.00;;;16.70;74.70;;;;;;4910948;29;20620;-67
2023/10/30 11:43:16;;;;;;;5.60;2.87;;;16.80;76.80;;;;;;4911282;29;20261;-67
2023/10/30 11:46:02;;;;;;;5.17;2.60;;;16.80;77.50;;;;;;4910848;29;20660;-68
2023/10/30 11:48:38;;;;;;;5.13;2.30;;;16.90;78.30;;;;;;4910917;29;20217;-67
2023/10/30 11:51:09;;;;;;;4.87;2.50;;;16.80;77.20;;;;;;4911087;29;20738;-67
2023/10/30 11:53:37;;;;;;;5.87;3.20;;;16.70;78.60;;;;;;4910966;29;20221;-67
2023/10/30 11:56:13;;;;;;;13.83;7.83;;;16.70;78.60;;;;;;4910824;29;20319;-68
2023/10/30 11:58:42;;;;;;;5.37;2.40;;;16.80;79.50;;;;;;4910961;29;20206;-67
2023/10/30 12:01:16;;;;;;;5.43;2.00;;;16.70;79.60;;;;;;4911154;29;20289;-67
2023/10/30 12:03:49;;;;;;;5.63;1.83;;;16.80;80.30;;;;;;4911137;29;20207;-67
2023/10/30 12:06:19;;;;;;;4.97;2.27;;;16.80;81.00;;;;;;4914821;29;20476;-67
2023/10/30 12:08:52;;;;;;;7.03;2.87;;;17.00;80.80;;;;;;4914731;29;20358;-67
2023/10/30 12:11:23;;;;;;;6.93;2.47;;;17.10;79.80;;;;;;4898644;29;20674;-67
2023/10/30 12:13:58;;;;;;;8.13;3.43;;;17.10;79.70;;;;;;4971328;28;20223;-68
2023/10/30 12:16:35;;;;;;;5.40;2.60;;;17.00;81.20;;;;;;4974195;28;20322;-68
2023/10/30 12:19:05;;;;;;;4.53;2.60;;;17.10;80.40;;;;;;4973709;28;20231;-67
2023/10/30 12:21:34;;;;;;;7.00;2.80;;;17.30;79.20;;;;;;4973838;28;20859;-67
2023/10/30 12:24:06;;;;;;;4.20;2.10;;;17.30;79.40;;;;;;4974202;28;20251;-67
2023/10/30 12:26:43;;;;;;;7.83;3.40;;;17.20;79.40;;;;;;4973572;28;20208;-68
2023/10/30 12:29:12;;;;;;;8.57;4.90;;;17.00;80.30;;;;;;4973937;28;20203;-67
2023/10/30 12:31:42;;;;;;;7.13;3.90;;;17.10;81.80;;;;;;4966839;28;20600;-67
2023/10/30 12:34:22;;;;;;;6.40;3.10;;;17.00;81.30;;;;;;4973382;28;20194;-68
2023/10/30 12:36:52;;;;;;;4.30;2.50;;;16.90;83.00;;;;;;4973843;28;20229;-67
2023/10/30 12:39:25;;;;;;;8.90;2.33;;;16.90;83.00;;;;;;4973800;28;20254;-68
2023/10/30 12:42:00;;;;;;;6.17;2.43;;;16.80;84.10;;;;;;4956253;28;20220;-68
2023/10/30 12:44:29;;;;;;;5.67;2.40;;;16.70;84.50;;;;;;4973710;28;20573;-68
2023/10/30 12:47:04;;;;;;;5.60;2.30;;;16.60;84.60;;;;;;4973665;28;20571;-67
2023/10/30 12:49:40;;;;;;;17.93;10.87;;;16.70;84.90;;;;;;4973542;28;20657;-68
2023/10/30 12:52:08;;;;;;;4.80;2.47;;;16.70;85.30;;;;;;4973583;28;20628;-67
2023/10/30 12:54:46;;;;;;;5.30;2.13;;;16.50;84.90;;;;;;4973463;28;20204;-68
2023/10/30 12:57:15;;;;;;;4.20;2.23;;;16.40;84.60;;;;;;4972500;28;20211;-68
2023/10/30 12:59:48;;;;;;;4.47;2.17;;;16.40;85.30;;;;;;4973709;28;20198;-67
2023/10/30 13:02:19;;;;;;;33.47;19.37;;;16.30;87.00;;;;;;4965177;28;20254;-67
2023/10/30 13:04:53;;;;;;;5.57;2.50;;;16.40;88.20;;;;;;4973243;28;20259;-68
2023/10/30 13:07:30;;;;;;;5.77;2.63;;;16.40;88.00;;;;;;4973381;28;20200;-68
2023/10/30 13:09:59;;;;;;;6.80;2.50;;;16.60;87.80;;;;;;4973324;28;20215;-67
2023/10/30 13:12:37;;;;;;;4.20;1.90;;;16.70;86.30;;;;;;4973311;28;20204;-67
2023/10/30 13:15:08;;;;;;;7.20;2.60;;;16.80;86.00;;;;;;4955303;28;20211;-68
2023/10/30 13:17:40;;;;;;;5.53;2.53;;;16.60;85.90;;;;;;4972358;28;20212;-68
2023/10/30 13:20:11;;;;;;;6.00;2.23;;;16.50;88.00;;;;;;4973152;28;20208;-68
2023/10/30 13:22:40;;;;;;;4.50;1.93;;;16.60;87.50;;;;;;4972847;28;20224;-68
2023/10/30 13:25:09;;;;;;;10.27;2.60;;;16.40;87.20;;;;;;4972773;28;20240;-67
2023/10/30 13:27:45;;;;;;;5.07;2.23;;;16.30;87.00;;;;;;4972886;28;20227;-67
2023/10/30 13:30:15;;;;;;;4.13;2.20;;;16.20;88.90;;;;;;4972756;28;20213;-68
2023/10/30 13:32:47;;;;;;;6.60;4.63;;;16.20;90.00;;;;;;4972596;28;20231;-68
2023/10/30 13:35:19;;;;;;;6.53;2.90;;;16.20;90.10;;;;;;4972797;28;20195;-68
2023/10/30 13:37:50;;;;;;;5.90;2.63;;;16.10;90.30;;;;;;4972638;28;20216;-68
2023/10/30 13:40:27;;;;;;;3.33;2.30;;;16.10;90.70;;;;;;4972475;28;20200;-68
2023/10/30 13:43:00;;;;;;;6.57;2.40;;;16.00;90.80;;;;;;4972548;28;20633;-68
2023/10/30 13:45:46;;;;;;;2.87;2.30;;;15.90;91.40;;;;;;4971844;28;20208;-69
2023/10/30 13:48:20;;;;;;;5.07;2.83;;;15.90;91.40;;;;;;4954732;28;20270;-68
2023/10/30 13:51:06;;;;;;;7.77;3.07;;;15.90;92.20;;;;;;4971799;28;20753;-68
2023/10/30 13:54:01;;;;;;;3.77;2.63;;;15.80;92.00;;;;;;4972115;28;20673;-69
2023/10/30 13:56:30;;;;;;;4.03;2.70;;;15.80;92.40;;;;;;4893476;29;20241;-68
2023/10/30 13:59:32;;;;;;;6.53;2.50;;;15.70;92.90;;;;;;4893457;29;20203;-68
2023/10/30 14:05:38;;;;;;;5.00;2.33;;;15.60;93.00;;;;;;4856397;29;20227;-68
2023/10/30 14:08:45;;;;;;;4.90;2.33;;;15.50;94.00;;;;;;4856217;29;20257;-68
2023/10/30 14:11:39;;;;;;;3.97;2.33;;;15.60;94.60;;;;;;4849394;29;20223;-68
2023/10/30 14:14:17;;;;;;;5.93;2.20;;;15.30;94.80;;;;;;4855941;29;20239;-68
2023/10/30 14:17:05;;;;;;;3.97;2.27;;;15.30;94.80;;;;;;4855429;29;20291;-67
2023/10/30 14:19:47;;;;;;;4.70;2.63;;;15.20;95.40;;;;;;4856090;29;20250;-68
2023/10/30 14:22:17;;;;;;;5.77;2.43;;;15.20;95.90;;;;;;4855906;29;20733;-68
2023/10/30 14:25:06;;;;;;;6.33;3.47;;;15.20;96.10;;;;;;4855902;29;20250;-68
2023/10/30 14:28:06;;;;;;;2.97;2.20;;;15.20;96.50;;;;;;4854830;29;20218;-68
2023/10/30 14:30:53;;;;;;;16.87;9.10;;;15.10;96.90;;;;;;4855497;29;20219;-68
2023/10/30 14:33:22;;;;;;;5.30;2.77;;;15.10;96.80;;;;;;4899566;29;20223;-68
2023/10/30 14:35:50;;;;;;;3.30;2.60;;;15.00;97.60;;;;;;4924877;28;20226;-68
2023/10/30 14:38:20;;;;;;;7.47;3.10;;;15.00;98.00;;;;;;4971569;28;20193;-68
2023/10/30 14:40:48;;;;;;;8.50;3.17;;;15.00;98.40;;;;;;4971498;28;20211;-68
2023/10/30 14:43:17;;;;;;;7.03;3.57;;;15.00;98.50;;;;;;4971744;28;20564;-68
2023/10/30 14:46:11;;;;;;;6.97;2.93;;;14.90;98.90;;;;;;4971231;28;20210;-67
2023/10/30 14:48:39;;;;;;;15.93;10.13;;;14.80;99.00;;;;;;4971859;28;20194;-68
2023/10/30 14:54:18;;;;;;;6.63;4.10;;;14.60;99.90;;;;;;4971202;28;20561;-68
2023/10/30 14:56:48;;;;;;;22.00;6.50;;;14.50;99.90;;;;;;4970901;28;20247;-68
2023/10/30 14:59:16;;;;;;;23.60;5.83;;;14.40;99.90;;;;;;4971417;28;20205;-66
2023/10/30 15:01:56;;;;;;;20.93;6.03;;;14.40;99.90;;;;;;4963653;28;20261;-68
2023/10/30 15:04:31;;;;;;;38.27;8.43;;;14.30;99.90;;;;;;4965560;28;20220;-65
2023/10/30 15:07:17;;;;;;;48.60;9.90;;;14.20;99.90;;;;;;4970884;28;20195;-67
2023/10/30 15:10:29;;;;;;;12.20;5.40;;;14.10;99.90;;;;;;4970940;28;20196;-68
2023/10/30 15:13:02;;;;;;;16.27;5.10;;;14.00;99.90;;;;;;4970899;28;20237;-66
2023/10/30 15:15:53;;;;;;;26.70;6.03;;;13.80;99.90;;;;;;4970890;28;20199;-67
2023/10/30 15:18:45;;;;;;;17.03;5.50;;;13.80;99.90;;;;;;4970689;28;20219;-67
2023/10/30 15:21:21;;;;;;;12.20;4.87;;;13.70;99.90;;;;;;4970488;28;20668;-67
2023/10/30 15:27:33;;;;;;;13.80;3.80;;;13.50;99.90;;;;;;4943500;28;20219;-67
2023/10/30 15:30:50;;;;;;;9.33;5.17;;;13.40;99.90;;;;;;4970401;28;20688;-66
2023/10/30 15:34:22;;;;;;;8.97;4.50;;;13.30;99.90;;;;;;4929513;28;20229;-66
2023/10/30 15:37:02;;;;;;;6.37;4.13;;;13.20;99.90;;;;;;4929863;29;20257;-67
2023/10/30 15:40:02;;;;;;;8.17;4.80;;;13.10;99.90;;;;;;4930876;29;20207;-66
2023/10/30 15:42:37;;;;;;;7.10;4.53;;;13.10;99.90;;;;;;4926826;29;20680;-67
2023/10/30 15:45:12;;;;;;;13.60;6.87;;;13.00;99.90;;;;;;4932680;29;20240;-67
2023/10/30 15:47:53;;;;;;;10.07;4.50;;;12.90;99.90;;;;;;4933553;29;20198;-67
2023/10/30 15:54:20;;;;;;;11.03;4.40;;;12.80;99.90;;;;;;4879554;29;20266;-67
2023/10/30 15:57:26;;;;;;;8.70;4.33;;;12.80;99.90;;;;;;4895306;29;20326;-68
2023/10/30 16:00:28;;;;;;;8.67;4.50;;;12.70;99.90;;;;;;4895449;29;20209;-67
2023/10/30 16:03:11;;;;;;;7.87;4.33;;;12.70;99.90;;;;;;4803460;29;20289;-67
2023/10/30 16:06:03;;;;;;;6.80;4.30;;;12.70;99.90;;;;;;4803295;29;21129;-66
2023/10/30 16:09:30;;;;;;;6.80;4.50;;;12.70;99.90;;;;;;4749924;30;20216;-67
2023/10/30 16:12:03;;;;;;;10.33;5.03;;;12.60;99.90;;;;;;4729991;30;20232;-67
2023/10/30 16:14:50;;;;;;;15.03;7.00;;;12.60;99.90;;;;;;4732228;30;20691;-66
2023/10/30 16:40:15;;;;;;;12.50;6.80;;;12.30;99.90;;;;;;4738718;29;20275;-67
2023/10/30 16:42:44;;;;;;;15.10;8.30;;;12.30;99.90;;;;;;4784482;29;20216;-67
2023/10/30 16:45:12;;;;;;;10.33;5.57;;;12.30;99.90;;;;;;4794956;29;20247;-66
2023/10/30 16:48:04;;;;;;;37.37;25.27;;;12.30;99.90;;;;;;4820453;29;20224;-67
2023/10/30 16:50:56;;;;;;;16.13;8.30;;;12.30;99.90;;;;;;4833816;29;20221;-67
2023/10/30 16:57:22;;;;;;;12.07;5.40;;;12.20;99.90;;;;;;4850365;29;20230;-67
2023/10/30 17:00:49;;;;;;;9.07;5.57;;;12.20;99.90;;;;;;4850868;29;20222;-67
2023/10/30 17:03:49;;;;;;;10.20;5.23;;;12.20;99.90;;;;;;4838369;29;20226;-65
2023/10/30 17:09:20;;;;;;;14.00;5.67;;;12.10;99.90;;;;;;4838647;29;20707;-66
2023/10/30 17:18:45;;;;;;;12.83;7.10;;;12.10;99.90;;;;;;4838075;29;20376;-67
2023/10/30 17:21:44;;;;;;;13.83;5.50;;;12.10;99.90;;;;;;4838229;29;20676;-67
2023/10/30 17:24:33;;;;;;;12.37;6.90;;;12.10;99.90;;;;;;4813283;29;20261;-67
2023/10/30 17:27:39;;;;;;;11.50;5.73;;;12.10;99.90;;;;;;4835149;29;20709;-67
2023/10/30 17:30:29;;;;;;;14.37;6.60;;;12.10;99.90;;;;;;4838026;29;20298;-67
2023/10/30 17:32:58;;;;;;;17.57;8.20;;;12.10;99.90;;;;;;4840192;29;20221;-66
2023/10/30 17:35:58;;;;;;;10.30;5.50;;;12.10;99.90;;;;;;4875173;29;20283;-67
2023/10/30 17:38:26;;;;;;;10.97;5.80;;;12.10;99.90;;;;;;4871615;29;20238;-67
2023/10/30 17:40:55;;;;;;;15.53;6.40;;;12.10;99.90;;;;;;4875143;29;20675;-66
2023/10/30 17:43:55;;;;;;;15.33;5.87;;;12.10;99.90;;;;;;4874595;29;20235;-67
2023/10/30 17:46:28;;;;;;;8.93;5.13;;;12.00;99.90;;;;;;4875010;29;20207;-67
2023/10/30 17:49:20;;;;;;;;;;;;;;;;;;;;;
2023/10/30 17:52:57;;;;;;;12.10;5.17;;;11.90;99.90;;;;;;4883333;29;20268;-67
2023/10/30 17:55:37;;;;;;;8.40;4.87;;;12.00;99.90;;;;;;4890278;29;20493;-67
2023/10/30 17:59:10;;;;;;;8.27;5.23;;;12.00;99.90;;;;;;4910429;29;20206;-67
2023/10/30 18:02:27;;;;;;;14.27;6.10;;;12.00;99.90;;;;;;4867314;29;20247;-67
2023/10/30 18:05:25;;;;;;;;;;;;;;;;;;;;;
2023/10/30 18:19:39;;;;;;;14.53;6.67;;;12.00;99.90;;;;;;4747104;30;20705;-67
2023/10/30 18:32:08;;;;;;;12.73;5.77;;;11.90;99.90;;;;;;4762373;30;20220;-66
2023/10/30 18:44:12;;;;;;;;;;;;;;;;;;;;;
2023/10/30 18:47:43;;;;;;;10.33;6.33;;;11.90;99.90;;;;;;4729455;30;20234;-67
2023/10/30 18:53:54;;;;;;;11.20;5.90;;;11.90;99.90;;;;;;4710524;30;20229;-66
2023/10/30 18:57:02;;;;;;;12.40;5.80;;;12.00;99.90;;;;;;4722932;30;20284;-66
2023/10/30 18:59:45;;;;;;;14.70;6.77;;;12.00;99.90;;;;;;4729407;30;20296;-67
2023/10/30 19:02:42;;;;;;;12.27;5.83;;;12.00;99.90;;;;;;4727427;30;20253;-67
2023/10/30 19:05:34;;;;;;;10.90;6.27;;;12.00;99.90;;;;;;4721724;30;20711;-67
2023/10/30 19:08:37;;;;;;;16.60;6.00;;;11.90;99.90;;;;;;4746333;30;20302;-66
2023/10/30 19:11:12;;;;;;;10.73;5.87;;;11.90;99.90;;;;;;4746930;30;20232;-67
2023/10/30 19:17:27;;;;;;;9.20;6.20;;;11.90;99.90;;;;;;4754519;29;20218;-67
2023/10/30 19:20:03;;;;;;;14.87;6.37;;;11.90;99.90;;;;;;4800031;29;20214;-66
2023/10/30 19:23:08;;;;;;;14.10;6.67;;;11.90;99.90;;;;;;4800304;29;20220;-67
2023/10/30 19:29:19;;;;;;;12.70;7.13;;;11.90;99.90;;;;;;4854354;29;20383;-67
2023/10/30 19:31:59;;;;;;;15.77;6.97;;;11.90;99.90;;;;;;4854711;29;20209;-66
2023/10/30 19:34:27;;;;;;;13.80;6.63;;;11.90;99.90;;;;;;4854661;29;20717;-66
2023/10/30 19:37:26;;;;;;;14.67;7.23;;;11.90;99.90;;;;;;4854921;29;20214;-67
2023/10/30 19:40:20;;;;;;;13.77;7.10;;;11.90;99.90;;;;;;4815988;29;20768;-67
2023/10/30 19:43:35;;;;;;;12.87;7.20;;;11.90;99.90;;;;;;4832033;29;20214;-67
2023/10/30 19:46:05;;;;;;;13.20;7.00;;;11.90;99.90;;;;;;4800389;29;20237;-67
2023/10/30 19:52:07;;;;;;;13.20;8.00;;;12.00;99.90;;;;;;4789972;29;20218;-67
2023/10/30 19:55:18;;;;;;;11.83;6.73;;;12.00;99.90;;;;;;4799955;29;21005;-67
2023/10/30 19:58:44;;;;;;;15.60;7.97;;;12.00;99.90;;;;;;4799644;29;20700;-67
2023/10/30 20:01:48;;;;;;;12.50;7.17;;;12.00;99.90;;;;;;4799877;29;20595;-67
2023/10/30 20:04:51;;;;;;;13.13;7.03;;;12.00;99.90;;;;;;4799979;29;20219;-67
2023/10/30 20:07:33;;;;;;;9.90;6.87;;;12.00;99.90;;;;;;4800317;29;20216;-67
2023/10/30 20:10:29;;;;;;;;;;;;;;;;;;;;;
2023/10/30 20:17:37;;;;;;;13.60;6.67;;;12.00;99.90;;;;;;4826228;29;20685;-68
2023/10/30 20:20:34;;;;;;;13.10;6.60;;;12.00;99.90;;;;;;4854816;29;20213;-67
2023/10/30 20:27:04;;;;;;;12.80;8.00;;;12.00;99.90;;;;;;4856357;29;20619;-67
2023/10/30 20:32:43;;;;;;;12.10;8.00;;;12.10;99.90;;;;;;4858175;29;20214;-67
2023/10/30 20:35:25;;;;;;;12.87;8.00;;;12.10;99.90;;;;;;4858148;29;20213;-67
2023/10/30 21:19:46;;;;;;;10.67;7.03;;;11.20;99.90;;;;;;4768618;30;20218;-67
2023/10/30 21:26:38;;;;;;;13.00;8.77;;;11.10;99.90;;;;;;4762561;30;20219;-68
2023/10/30 21:29:30;;;;;;;12.27;9.50;;;11.00;99.90;;;;;;4778547;30;20226;-67
2023/10/30 21:32:30;;;;;;;13.20;8.63;;;10.90;99.90;;;;;;4779293;29;20718;-67
2023/10/30 21:35:43;;;;;;;11.27;8.47;;;10.90;99.90;;;;;;4815932;29;20843;-67
2023/10/30 21:38:34;;;;;;;13.67;9.97;;;10.90;99.90;;;;;;4870045;29;20638;-68
2023/10/30 21:41:16;;;;;;;15.60;10.90;;;10.80;99.90;;;;;;4797269;29;20222;-67
2023/10/30 21:44:16;;;;;;;14.87;9.70;;;10.80;99.90;;;;;;4796936;29;21070;-67
2023/10/30 21:47:42;;;;;;;15.40;11.40;;;10.70;99.90;;;;;;4743555;30;20212;-68